createdAt,value
2022-11-24T00:01:03.011Z,96138.97
2022-11-24T00:03:29.698Z,96148.16
2022-11-24T00:05:56.246Z,96145.84
2022-11-24T00:08:22.718Z,96141.16
2022-11-24T00:10:49.323Z,96142.41
2022-11-24T00:13:15.876Z,96144.75
2022-11-24T00:15:42.412Z,96156.72
2022-11-24T00:18:08.924Z,96152.66
2022-11-24T00:20:35.446Z,96161.03
2022-11-24T00:23:02.015Z,96162.78
2022-11-24T00:25:28.512Z,96171.00
2022-11-24T00:27:55.050Z,96172.25
2022-11-24T00:30:21.543Z,96179.97
2022-11-24T00:32:48.041Z,96184.91
2022-11-24T00:35:14.705Z,96177.47
2022-11-24T00:37:41.220Z,96187.72
2022-11-24T00:40:08.490Z,96180.88
2022-11-24T00:42:35.006Z,96183.19
2022-11-24T00:45:12.938Z,96186.66
2022-11-24T00:47:40.214Z,96184.78
2022-11-24T00:50:07.289Z,96187.56
2022-11-24T00:52:33.792Z,96192.41
2022-11-24T00:55:00.286Z,96182.47
2022-11-24T00:57:26.829Z,96186.47
2022-11-24T00:59:53.361Z,96191.16
2022-11-24T01:02:19.922Z,96188.66
2022-11-24T01:04:48.029Z,96192.69
2022-11-24T01:07:14.608Z,96196.16
2022-11-24T01:09:43.186Z,96190.88
2022-11-24T01:12:09.916Z,96197.88
2022-11-24T01:14:36.938Z,96182.13
2022-11-24T01:17:03.658Z,96202.00
2022-11-24T01:19:30.185Z,96195.78
2022-11-24T01:21:56.680Z,96205.09
2022-11-24T01:24:23.189Z,96186.47
2022-11-24T01:26:49.732Z,96198.88
2022-11-24T01:29:16.327Z,96194.38
2022-11-24T01:31:42.874Z,96205.69
2022-11-24T01:34:09.423Z,96208.78
2022-11-24T01:36:35.946Z,96206.53
2022-11-24T01:39:02.516Z,96176.06
2022-11-24T01:41:29.037Z,96207.13
2022-11-24T01:43:56.438Z,96205.16
2022-11-24T01:46:26.479Z,96197.84
2022-11-24T01:49:02.257Z,96204.06
2022-11-24T01:51:31.256Z,96200.75
2022-11-24T01:54:02.775Z,96208.38
2022-11-24T01:56:30.886Z,96212.72
2022-11-24T01:59:01.549Z,96218.44
2022-11-24T02:01:29.271Z,96211.59
2022-11-24T02:03:57.085Z,96205.81
2022-11-24T02:06:29.054Z,96206.91
2022-11-24T02:09:07.678Z,96221.19
2022-11-24T02:11:37.220Z,96207.97
2022-11-24T02:14:05.966Z,96218.13
2022-11-24T02:16:35.572Z,96208.19
2022-11-24T02:19:07.067Z,96219.66
2022-11-24T02:21:33.713Z,96225.72
2022-11-24T02:24:11.430Z,96213.19
2022-11-24T02:26:49.715Z,96213.50
2022-11-24T02:29:16.524Z,96217.09
2022-11-24T02:31:49.743Z,96220.50
2022-11-24T02:34:16.318Z,96211.81
2022-11-24T02:36:42.834Z,96218.53
2022-11-24T02:39:14.269Z,96219.00
2022-11-24T02:41:45.102Z,96214.06
2022-11-24T02:44:15.876Z,96217.72
2022-11-24T02:46:42.454Z,96210.56
2022-11-24T02:49:09.001Z,96215.50
2022-11-24T02:51:35.643Z,96214.81
2022-11-24T02:54:02.149Z,96211.41
2022-11-24T02:56:28.653Z,96219.66
2022-11-24T02:58:55.190Z,96210.19
2022-11-24T03:01:21.745Z,96221.59
2022-11-24T03:03:48.441Z,96215.13
2022-11-24T03:06:14.943Z,96226.00
2022-11-24T03:08:41.436Z,96212.09
2022-11-24T03:11:07.925Z,96213.44
2022-11-24T03:13:34.411Z,96222.59
2022-11-24T03:16:00.948Z,96222.59
2022-11-24T03:18:27.487Z,96228.03
2022-11-24T03:20:59.557Z,96224.50
2022-11-24T03:23:26.405Z,96225.13
2022-11-24T03:25:52.915Z,96230.25
2022-11-24T03:28:19.400Z,96228.69
2022-11-24T03:30:48.579Z,96230.41
2022-11-24T03:33:15.122Z,96239.09
2022-11-24T03:35:42.299Z,96231.03
2022-11-24T03:38:09.023Z,96245.75
2022-11-24T03:40:35.552Z,96232.56
2022-11-24T03:43:02.043Z,96234.88
2022-11-24T03:48:21.122Z,96240.34
2022-11-24T03:50:56.222Z,96243.25
2022-11-24T03:53:23.996Z,96245.63
2022-11-24T03:55:50.524Z,96246.41
2022-11-24T03:58:17.191Z,96244.97
2022-11-24T04:00:43.718Z,96254.16
2022-11-24T04:03:10.283Z,96246.56
2022-11-24T04:05:37.131Z,96255.41
2022-11-24T04:08:05.428Z,96252.31
2022-11-24T04:10:35.930Z,96255.53
2022-11-24T04:13:03.934Z,96260.34
2022-11-24T04:15:30.519Z,96264.38
2022-11-24T04:17:57.919Z,96250.25
2022-11-24T04:20:24.535Z,96259.84
2022-11-24T04:22:51.885Z,96250.66
2022-11-24T04:25:18.523Z,96263.50
2022-11-24T04:27:45.463Z,96265.94
2022-11-24T04:30:12.194Z,96265.22
2022-11-24T04:32:38.698Z,96267.63
2022-11-24T04:35:05.519Z,96269.03
2022-11-24T04:37:32.025Z,96261.38
2022-11-24T04:39:58.529Z,96270.31
2022-11-24T04:42:25.159Z,96259.09
2022-11-24T04:44:51.902Z,96266.41
2022-11-24T04:47:21.726Z,96269.47
2022-11-24T04:49:51.603Z,96272.88
2022-11-24T04:52:20.592Z,96283.13
2022-11-24T04:54:50.754Z,96292.81
2022-11-24T04:57:17.241Z,96296.88
2022-11-24T04:59:43.774Z,96302.78
2022-11-24T05:02:11.102Z,96299.09
2022-11-24T05:04:38.039Z,96308.56
2022-11-24T05:07:04.898Z,96305.25
2022-11-24T05:09:54.999Z,96310.22
2022-11-24T05:12:17.975Z,96313.09
2022-11-24T05:14:44.534Z,96311.28
2022-11-24T05:17:11.083Z,96314.16
2022-11-24T05:19:37.550Z,96312.31
2022-11-24T05:22:04.114Z,96322.59
2022-11-24T05:24:30.771Z,96323.88
2022-11-24T05:26:57.404Z,96329.44
2022-11-24T05:29:24.007Z,96338.47
2022-11-24T05:31:50.607Z,96333.22
2022-11-24T05:34:18.316Z,96338.66
2022-11-24T05:36:54.151Z,96345.97
2022-11-24T05:39:21.331Z,96340.59
2022-11-24T05:41:47.904Z,96345.25
2022-11-24T05:44:14.421Z,96347.47
2022-11-24T05:46:40.989Z,96347.47
2022-11-24T05:49:07.575Z,96352.13
2022-11-24T05:51:34.558Z,96356.34
2022-11-24T05:54:01.115Z,96351.22
2022-11-24T05:56:27.781Z,96357.75
2022-11-24T05:58:55.201Z,96351.13
2022-11-24T06:01:21.692Z,96364.44
2022-11-24T06:03:48.366Z,96359.19
2022-11-24T06:06:14.891Z,96368.84
2022-11-24T06:08:42.118Z,96369.03
2022-11-24T06:11:18.274Z,96373.19
2022-11-24T06:13:46.049Z,96365.72
2022-11-24T06:16:13.318Z,96379.38
2022-11-24T06:18:39.937Z,96373.19
2022-11-24T06:21:11.463Z,96370.47
2022-11-24T06:23:39.020Z,96378.91
2022-11-24T06:26:06.068Z,96381.75
2022-11-24T06:28:32.634Z,96382.38
2022-11-24T06:31:03.485Z,96387.03
2022-11-24T06:33:34.742Z,96393.25
2022-11-24T06:36:07.419Z,96397.63
2022-11-24T06:38:35.785Z,96389.84
2022-11-24T06:41:07.339Z,96397.31
2022-11-24T06:43:35.910Z,96401.63
2022-11-24T06:46:02.944Z,96406.28
2022-11-24T06:48:30.284Z,96412.50
2022-11-24T06:51:01.345Z,96426.31
2022-11-24T06:53:31.587Z,96402.94
2022-11-24T06:56:00.045Z,96421.13
2022-11-24T06:58:26.715Z,96426.13
2022-11-24T07:00:53.633Z,96422.91
2022-11-24T07:03:20.340Z,96424.31
2022-11-24T07:05:47.013Z,96427.19
2022-11-24T07:08:17.796Z,96431.22
2022-11-24T07:10:44.784Z,96432.03
2022-11-24T07:13:11.354Z,96443.84
2022-11-24T07:15:37.980Z,96442.00
2022-11-24T07:18:04.758Z,96435.59
2022-11-24T07:20:31.660Z,96451.53
2022-11-24T07:22:58.435Z,96451.56
2022-11-24T07:25:26.015Z,96460.59
2022-11-24T07:27:59.898Z,96451.31
2022-11-24T07:30:28.357Z,96455.34
2022-11-24T07:33:02.514Z,96461.88
2022-11-24T07:35:29.824Z,96463.78
2022-11-24T07:37:58.042Z,96467.50
2022-11-24T07:40:27.010Z,96456.28
2022-11-24T07:42:54.437Z,96461.91
2022-11-24T07:45:20.904Z,96461.28
2022-11-24T07:47:47.456Z,96467.50
2022-11-24T07:50:14.360Z,96466.22
2022-11-24T07:52:40.871Z,96467.81
2022-11-24T07:55:08.079Z,96472.16
2022-11-24T07:57:35.077Z,96466.38
2022-11-24T08:00:02.338Z,96474.44
2022-11-24T08:02:28.941Z,96469.59
2022-11-24T08:04:55.522Z,96466.47
2022-11-24T08:07:22.070Z,96462.72
2022-11-24T08:09:50.444Z,96472.34
2022-11-24T08:12:26.056Z,96465.78
2022-11-24T08:14:52.586Z,96476.94
2022-11-24T08:17:19.133Z,96481.88
2022-11-24T08:19:45.863Z,96478.78
2022-11-24T08:22:12.508Z,96488.59
2022-11-24T08:24:40.423Z,96475.81
2022-11-24T08:27:07.035Z,96473.81
2022-11-24T08:29:33.647Z,96473.16
2022-11-24T08:32:00.294Z,96479.06
2022-11-24T08:34:29.571Z,96483.28
2022-11-24T08:36:56.151Z,96485.16
2022-11-24T08:39:22.802Z,96486.81
2022-11-24T08:41:49.354Z,96485.63
2022-11-24T08:44:18.180Z,96479.69
2022-11-24T08:46:45.366Z,96486.69
2022-11-24T08:49:15.074Z,96491.97
2022-11-24T08:51:42.405Z,96481.50
2022-11-24T08:54:13.380Z,96477.56
2022-11-24T08:56:40.170Z,96483.34
2022-11-24T08:59:06.912Z,96484.94
2022-11-24T09:01:33.962Z,96491.31
2022-11-24T09:04:00.681Z,96489.59
2022-11-24T09:06:31.006Z,96487.13
2022-11-24T09:08:59.595Z,96482.78
2022-11-24T09:11:27.290Z,96481.16
2022-11-24T09:13:55.517Z,96485.69
2022-11-24T09:16:28.829Z,96493.44
2022-11-24T09:18:58.340Z,96490.00
2022-11-24T09:21:25.975Z,96485.69
2022-11-24T09:23:54.017Z,96490.31
2022-11-24T09:26:21.919Z,96488.72
2022-11-24T09:28:48.859Z,96495.25
2022-11-24T09:31:18.003Z,96492.69
2022-11-24T09:33:45.554Z,96488.28
2022-11-24T09:36:12.297Z,96492.47
2022-11-24T09:38:39.079Z,96490.75
2022-11-24T09:41:17.495Z,96496.47
2022-11-24T09:44:10.239Z,96485.78
2022-11-24T09:46:55.245Z,96484.84
2022-11-24T09:49:32.360Z,96482.34
2022-11-24T09:52:02.516Z,96480.97
2022-11-24T09:54:30.993Z,96480.00
2022-11-24T09:57:00.862Z,96487.13
2022-11-24T09:59:28.445Z,96487.59
2022-11-24T10:01:56.648Z,96481.72
2022-11-24T10:04:32.742Z,96478.72
2022-11-24T10:07:05.416Z,96480.88
2022-11-24T10:10:02.303Z,96475.19
2022-11-24T10:12:38.022Z,96487.81
2022-11-24T10:15:16.052Z,96481.91
2022-11-24T10:18:16.411Z,96482.84
2022-11-24T10:20:56.180Z,96482.84
2022-11-24T10:23:54.556Z,96479.56
2022-11-24T10:26:36.323Z,96482.50
2022-11-24T10:29:20.425Z,96477.09
2022-11-24T10:31:52.282Z,96471.38
2022-11-24T10:34:21.582Z,96479.06
2022-11-24T10:36:58.020Z,96481.28
2022-11-24T10:39:50.548Z,96477.19
2022-11-24T10:42:37.456Z,96478.84
2022-11-24T10:45:12.277Z,96467.59
2022-11-24T10:47:39.617Z,96476.31
2022-11-24T10:50:06.332Z,96479.38
2022-11-24T10:52:40.750Z,96489.97
2022-11-24T10:55:07.877Z,96488.50
2022-11-24T10:57:36.844Z,96480.75
2022-11-24T11:00:18.416Z,96494.34
2022-11-24T11:02:47.554Z,96488.13
2022-11-24T11:05:32.198Z,96498.69
2022-11-24T11:08:21.041Z,96498.69
2022-11-24T11:10:50.513Z,96494.59
2022-11-24T11:13:44.015Z,96492.31
2022-11-24T11:16:23.599Z,96511.03
2022-11-24T11:18:50.277Z,96512.34
2022-11-24T11:21:28.815Z,96505.25
2022-11-24T11:23:55.404Z,96518.66
2022-11-24T11:26:24.987Z,96514.59
2022-11-24T11:31:15.612Z,96523.06
2022-11-24T11:34:53.555Z,96525.56
2022-11-24T11:37:21.726Z,96519.94
2022-11-24T11:39:51.200Z,96538.94
2022-11-24T11:43:00.834Z,96542.22
2022-11-24T11:45:28.758Z,96536.22
2022-11-24T11:48:01.115Z,96545.91
2022-11-24T11:53:59.986Z,96553.53
2022-11-24T11:56:40.405Z,96570.53
2022-11-24T11:59:24.032Z,96560.28
2022-11-24T12:02:26.014Z,96581.44
2022-11-24T12:05:00.676Z,96572.41
2022-11-24T12:07:33.321Z,96580.53
2022-11-24T12:10:32.012Z,96585.81
2022-11-24T12:13:07.253Z,96580.22
2022-11-24T12:15:43.262Z,96578.00
2022-11-24T12:18:55.279Z,96602.91
2022-11-24T12:21:26.186Z,96602.91
2022-11-24T12:24:11.913Z,96598.53
2022-11-24T12:26:53.590Z,96605.41
2022-11-24T12:29:50.900Z,96603.81
2022-11-24T12:32:36.238Z,96610.84
2022-11-24T12:35:17.950Z,96612.56
2022-11-24T12:38:22.639Z,96624.38
2022-11-24T12:41:33.709Z,96619.28
2022-11-24T12:43:55.370Z,96623.00
2022-11-24T12:46:33.844Z,96619.91
2022-11-24T12:49:12.087Z,96614.16
2022-11-24T12:51:43.492Z,96612.91
2022-11-24T12:54:15.670Z,96608.84
2022-11-24T12:57:04.607Z,96608.22
2022-11-24T12:59:43.776Z,96599.81
2022-11-24T13:02:49.563Z,96607.59
2022-11-24T13:05:27.240Z,96612.91
2022-11-24T13:07:59.425Z,96620.69
2022-11-24T13:10:46.996Z,96625.50
2022-11-24T13:13:14.555Z,96632.69
2022-11-24T13:16:36.129Z,96628.91
2022-11-24T13:19:13.805Z,96625.66
2022-11-24T13:21:40.330Z,96631.25
2022-11-24T13:24:23.421Z,96636.88
2022-11-24T13:26:52.692Z,96634.06
2022-11-24T13:29:28.400Z,96630.94
2022-11-24T13:31:55.975Z,96627.50
2022-11-24T13:34:45.938Z,96639.59
2022-11-24T13:37:31.220Z,96642.72
2022-11-24T13:40:30.765Z,96652.06
2022-11-24T13:42:57.599Z,96660.78
2022-11-24T13:45:39.856Z,96656.13
2022-11-24T13:48:35.895Z,96653.94
2022-11-24T13:51:02.413Z,96656.13
2022-11-24T13:53:41.132Z,96657.22
2022-11-24T13:56:13.853Z,96657.38
2022-11-24T13:58:49.218Z,96662.06
2022-11-24T14:01:24.929Z,96659.59
2022-11-24T14:04:29.197Z,96663.94
2022-11-24T14:06:52.424Z,96654.44
2022-11-24T14:09:42.580Z,96672.31
2022-11-24T14:12:16.486Z,96667.03
2022-11-24T14:14:44.737Z,96683.84
2022-11-24T14:17:14.700Z,96677.13
2022-11-24T14:19:42.864Z,96687.06
2022-11-24T14:22:17.068Z,96681.63
2022-11-24T14:24:47.060Z,96688.66
2022-11-24T14:27:17.310Z,96689.41
2022-11-24T14:29:55.329Z,96684.28
2022-11-24T14:32:22.872Z,96698.44
2022-11-24T14:34:51.046Z,96697.13
2022-11-24T14:37:19.441Z,96699.94
2022-11-24T14:39:46.493Z,96696.03
2022-11-24T14:42:27.281Z,96695.53
2022-11-24T14:44:56.547Z,96698.94
2022-11-24T14:47:37.586Z,96698.16
2022-11-24T14:50:14.913Z,96709.16
2022-11-24T14:52:49.725Z,96707.28
2022-11-24T14:55:28.309Z,96719.09
2022-11-24T14:57:55.356Z,96721.22
2022-11-24T15:00:24.809Z,96729.63
2022-11-24T15:02:55.519Z,96714.97
2022-11-24T15:05:24.219Z,96718.50
2022-11-24T15:08:01.451Z,96718.19
2022-11-24T15:10:36.261Z,96722.97
2022-11-24T15:13:07.300Z,96722.97
2022-11-24T15:15:36.638Z,96718.53
2022-11-24T15:18:05.347Z,96724.47
2022-11-24T15:20:37.720Z,96726.34
2022-11-24T15:23:25.375Z,96722.56
2022-11-24T15:26:12.154Z,96729.09
2022-11-24T15:28:38.957Z,96732.97
2022-11-24T15:31:09.603Z,96735.25
2022-11-24T15:33:36.551Z,96731.03
2022-11-24T15:36:03.171Z,96740.53
2022-11-24T15:38:29.723Z,96740.28
2022-11-24T15:41:00.010Z,96744.16
2022-11-24T15:43:34.307Z,96752.75
2022-11-24T15:46:02.269Z,96746.31
2022-11-24T15:48:29.657Z,96747.22
2022-11-24T15:50:56.543Z,96754.50
2022-11-24T15:53:29.545Z,96756.50
2022-11-24T15:55:57.544Z,96762.25
2022-11-24T15:58:24.307Z,96767.06
2022-11-24T16:00:53.411Z,96765.63
2022-11-24T16:06:14.399Z,96763.16
2022-11-24T16:08:43.503Z,96772.69
2022-11-24T16:11:10.103Z,96781.41
2022-11-24T16:13:36.741Z,96766.78
2022-11-24T16:16:03.664Z,96776.38
2022-11-24T16:18:31.790Z,96774.97
2022-11-24T16:20:58.545Z,96767.94
2022-11-24T16:23:25.085Z,96768.19
2022-11-24T16:25:51.906Z,96775.66
2022-11-24T16:28:18.520Z,96777.53
2022-11-24T16:30:51.124Z,96785.03
2022-11-24T16:33:18.081Z,96777.13
2022-11-24T16:35:47.548Z,96785.69
2022-11-24T16:38:16.269Z,96775.97
2022-11-24T16:40:42.899Z,96789.47
2022-11-24T16:43:09.644Z,96790.72
2022-11-24T16:45:38.586Z,96793.06
2022-11-24T16:48:08.847Z,96785.13
2022-11-24T16:50:37.514Z,96784.88
2022-11-24T16:53:04.042Z,96785.59
2022-11-24T16:55:30.586Z,96774.59
2022-11-24T16:57:57.169Z,96781.44
2022-11-24T17:00:23.753Z,96779.09
2022-11-24T17:02:50.426Z,96787.19
2022-11-24T17:05:17.141Z,96785.03
2022-11-24T17:07:43.732Z,96774.88
2022-11-24T17:10:10.525Z,96781.91
2022-11-24T17:12:37.717Z,96787.50
2022-11-24T17:18:22.427Z,96786.34
2022-11-24T17:20:38.525Z,96789.31
2022-11-24T17:23:05.070Z,96794.66
2022-11-24T17:25:33.133Z,96800.97
2022-11-24T17:27:59.676Z,96803.19
2022-11-24T17:30:26.223Z,96805.19
2022-11-24T17:32:56.841Z,96810.41
2022-11-24T17:35:23.704Z,96824.06
2022-11-24T17:37:50.232Z,96818.81
2022-11-24T17:40:34.545Z,96823.81
2022-11-24T17:43:01.624Z,96814.44
2022-11-24T17:45:29.837Z,96820.69
2022-11-24T17:48:00.986Z,96822.91
2022-11-24T17:50:27.593Z,96809.16
2022-11-24T17:52:54.527Z,96826.03
2022-11-24T17:55:22.510Z,96826.03
2022-11-24T17:57:49.101Z,96817.94
2022-11-24T18:00:16.123Z,96815.16
2022-11-24T18:02:42.826Z,96813.56
2022-11-24T18:05:09.532Z,96820.44
2022-11-24T18:07:36.808Z,96824.19
2022-11-24T18:10:04.173Z,96823.41
2022-11-24T18:12:30.717Z,96832.03
2022-11-24T18:14:57.285Z,96833.44
2022-11-24T18:17:23.933Z,96841.25
2022-11-24T18:19:50.468Z,96839.56
2022-11-24T18:22:17.639Z,96838.03
2022-11-24T18:24:45.813Z,96843.06
2022-11-24T18:27:12.338Z,96839.00
2022-11-24T18:29:38.915Z,96832.03
2022-11-24T18:32:05.994Z,96839.88
2022-11-24T18:34:32.736Z,96843.31
2022-11-24T18:36:59.749Z,96843.16
2022-11-24T18:39:28.333Z,96847.97
2022-11-24T18:41:54.905Z,96847.22
2022-11-24T18:44:21.467Z,96854.03
2022-11-24T18:46:49.369Z,96861.00
2022-11-24T18:49:15.896Z,96868.03
2022-11-24T18:51:42.511Z,96867.16
2022-11-24T18:54:09.026Z,96864.28
2022-11-24T18:56:35.542Z,96863.00
2022-11-24T18:59:02.356Z,96870.13
2022-11-24T19:01:29.461Z,96873.59
2022-11-24T19:03:58.521Z,96876.06
2022-11-24T19:06:34.390Z,96875.75
2022-11-24T19:09:13.122Z,96857.84
2022-11-24T19:11:42.704Z,96871.19
2022-11-24T19:14:12.601Z,96862.84
2022-11-24T19:16:39.479Z,96870.69
2022-11-24T19:19:06.874Z,96875.63
2022-11-24T19:21:37.231Z,96877.06
2022-11-24T19:24:05.893Z,96874.84
2022-11-24T19:26:35.088Z,96884.50
2022-11-24T19:29:02.440Z,96890.19
2022-11-24T19:31:29.032Z,96903.06
2022-11-24T19:33:58.587Z,96893.06
2022-11-24T19:36:26.225Z,96897.50
2022-11-24T19:38:57.123Z,96903.31
2022-11-24T19:41:29.477Z,96908.63
2022-11-24T19:43:57.955Z,96905.06
2022-11-24T19:46:27.325Z,96900.38
2022-11-24T19:48:56.880Z,96898.69
2022-11-24T19:51:26.290Z,96897.31
2022-11-24T19:53:53.212Z,96900.44
2022-11-24T19:56:24.996Z,96907.41
2022-11-24T19:58:52.524Z,96906.16
2022-11-24T20:01:27.396Z,96915.66
2022-11-24T20:04:00.239Z,96899.78
2022-11-24T20:06:31.244Z,96916.31
2022-11-24T20:08:59.366Z,96913.50
2022-11-24T20:11:26.300Z,96916.78
2022-11-24T20:13:52.859Z,96913.78
2022-11-24T20:16:26.268Z,96919.72
2022-11-24T20:18:55.032Z,96921.88
2022-11-24T20:21:23.901Z,96930.59
2022-11-24T20:23:59.354Z,96918.75
2022-11-24T20:26:28.673Z,96913.91
2022-11-24T20:28:56.650Z,96915.88
2022-11-24T20:31:28.876Z,96913.56
2022-11-24T20:33:55.818Z,96925.03
2022-11-24T20:36:25.347Z,96927.38
2022-11-24T20:38:53.609Z,96927.53
2022-11-24T20:41:25.689Z,96928.75
2022-11-24T20:43:54.053Z,96929.53
2022-11-24T20:46:23.949Z,96928.31
2022-11-24T20:48:51.203Z,96922.25
2022-11-24T20:51:23.849Z,96927.97
2022-11-24T20:53:52.284Z,96924.72
2022-11-24T20:56:22.806Z,96926.16
2022-11-24T20:58:49.658Z,96930.03
2022-11-24T21:01:22.727Z,96926.91
2022-11-24T21:03:56.840Z,96932.53
2022-11-24T21:06:23.849Z,96928.19
2022-11-24T21:08:51.053Z,96937.38
2022-11-24T21:11:19.122Z,96928.50
2022-11-24T21:13:47.586Z,96928.63
2022-11-24T21:16:21.461Z,96931.88
2022-11-24T21:18:52.385Z,96932.47
2022-11-24T21:21:23.538Z,96932.13
2022-11-24T21:23:50.419Z,96937.09
2022-11-24T21:26:18.166Z,96938.63
2022-11-24T21:28:46.568Z,96941.91
2022-11-24T21:31:18.665Z,96943.56
2022-11-24T21:33:48.157Z,96929.50
2022-11-24T21:36:17.785Z,96927.28
2022-11-24T21:38:49.579Z,96930.28
2022-11-24T21:41:16.264Z,96929.81
2022-11-24T21:43:43.177Z,96932.94
2022-11-24T21:46:10.965Z,96932.63
2022-11-24T21:48:39.119Z,96915.16
2022-11-24T21:51:08.090Z,96919.94
2022-11-24T21:53:36.848Z,96928.34
2022-11-24T21:56:06.990Z,96928.09
2022-11-24T21:58:34.089Z,96919.38
2022-11-24T22:01:10.937Z,96947.03
2022-11-24T22:03:38.159Z,96944.56
2022-11-24T22:06:05.058Z,96938.63
2022-11-24T22:08:31.903Z,96943.56
2022-11-24T22:11:07.202Z,96950.06
2022-11-24T22:13:34.257Z,96952.53
2022-11-24T22:16:06.265Z,96960.94
2022-11-24T22:18:41.227Z,96958.47
2022-11-24T22:21:11.236Z,96958.94
2022-11-24T22:23:38.074Z,96958.13
2022-11-24T22:26:07.422Z,96951.88
2022-11-24T22:28:35.382Z,96950.53
2022-11-24T22:31:10.862Z,96951.88
2022-11-24T22:33:37.680Z,96961.25
2022-11-24T22:36:05.011Z,96966.84
2022-11-24T22:38:32.754Z,96963.88
2022-11-24T22:41:10.821Z,96969.59
2022-11-24T22:43:38.672Z,96970.72
2022-11-24T22:46:13.861Z,96966.59
2022-11-24T22:48:40.993Z,96968.97
2022-11-24T22:51:13.501Z,96962.25
2022-11-24T22:53:41.928Z,96971.75
2022-11-24T22:56:11.084Z,96967.59
2022-11-24T22:58:39.378Z,96963.91
2022-11-24T23:01:08.106Z,96977.75
2022-11-24T23:03:35.922Z,96969.81
2022-11-24T23:06:04.131Z,96980.44
2022-11-24T23:08:33.679Z,96974.16
2022-11-24T23:11:07.093Z,96970.25
2022-11-24T23:13:34.193Z,96978.31
2022-11-24T23:16:21.214Z,96974.28
2022-11-24T23:18:53.548Z,96979.53
2022-11-24T23:21:25.366Z,96979.09
2022-11-24T23:23:52.978Z,96984.81
2022-11-24T23:26:25.423Z,96989.50
2022-11-24T23:28:52.178Z,96984.81
2022-11-24T23:31:21.516Z,96983.00
2022-11-24T23:33:49.563Z,96983.97
2022-11-24T23:36:18.565Z,96983.88
2022-11-24T23:38:45.570Z,96980.06
2022-11-24T23:41:17.433Z,96983.19
2022-11-24T23:43:44.125Z,96985.66
2022-11-24T23:46:24.561Z,96985.66
2022-11-24T23:48:53.487Z,96979.81
2022-11-24T23:51:24.034Z,96993.81
2022-11-24T23:53:51.253Z,96994.06
2022-11-24T23:56:22.697Z,96994.06
2022-11-24T23:58:49.430Z,97004.91
